Time;durP1;ratioP1;P1;durP2;ratioP2;P2;SDS_P1;SDS_P2;PMS_P1;PMS_P2;Temp;Humidity;BMP_temperature;BMP_pressure;BME280_temperature;BME280_humidity;BME280_pressure;Samples;Min_cycle;Max_cycle;Signal;HPM_P1;HPM_P2
2020/12/26 00:01:18;;;;;;;;;;;;;;;0.83;77.79;98359.94;1765562;81;20701;-88
2020/12/26 00:04:05;;;;;;;;;;;;;;;0.81;77.78;98364.31;1763546;81;24261;-88
2020/12/26 00:06:52;;;;;;;;;;;;;;;0.84;77.81;98368.06;1765180;81;22925;-88
2020/12/26 00:09:38;;;;;;;;;;;;;;;0.89;77.82;98372.62;1760441;80;27067;-87
2020/12/26 00:12:25;;;;;;;;;;;;;;;0.86;77.86;98366.73;1766187;80;24670;-88
2020/12/26 00:15:10;;;;;;;;;;;;;;;0.86;77.86;98368.87;1766205;81;20385;-87
2020/12/26 00:17:56;;;;;;;;;;;;;;;0.89;77.89;98368.75;1762107;81;24984;-89
2020/12/26 00:20:43;;;;;;;;;;;;;;;0.94;77.91;98370.73;1760940;80;22035;-88
2020/12/26 00:23:31;;;;;;;;;;;;;;;0.99;77.92;98375.73;1760478;81;26137;-87
2020/12/26 00:26:17;;;;;;;;;;;;;;;0.96;77.96;98375.41;1768298;79;24767;-87
2020/12/26 00:29:08;;;;;;;;;;;;;;;0.94;77.99;98379.75;1765682;79;20272;-87
2020/12/26 00:31:54;;;;;;;;;;;;;;;0.95;77.99;98377.58;1761998;81;24915;-88
2020/12/26 00:34:40;;;;;;;;;;;;;;;0.95;77.99;98376.29;1765684;81;22132;-88
2020/12/26 00:37:27;;;;;;;;;;;;;;;1.00;78.01;98376.14;1765536;81;26179;-87
2020/12/26 00:40:13;;;;;;;;;;;;;;;1.03;78.03;98372.19;1751374;80;25441;-88
2020/12/26 00:43:00;;;;;;;;;;;;;;;1.08;78.03;98383.19;1746849;81;20309;-88
2020/12/26 00:45:46;;;;;;;;;;;;;;;1.19;78.04;98382.38;1704966;82;24871;-88
2020/12/26 00:48:33;;;;;;;;;;;;;;;1.31;78.07;98379.38;1717172;83;22086;-88
2020/12/26 00:51:19;;;;;;;;;;;;;;;1.40;78.11;98385.53;1716774;83;26338;-87
2020/12/26 00:54:07;;;;;;;;;;;;;;;1.48;78.14;98382.67;1728444;82;25540;-88
2020/12/26 00:56:52;;;;;;;;;;;;;;;1.55;78.16;98375.97;1726006;81;20260;-88
2020/12/26 00:59:40;;;;;;;;;;;;;;;1.73;78.17;98383.52;1726677;81;25775;-88
2020/12/26 01:02:26;;;;;;;;;;;;;;;1.73;78.21;98395.58;1727225;81;22085;-88
2020/12/26 01:04:59;;;;;;;;;;;;;;;1.75;78.23;98393.31;1728776;83;26166;-88
2020/12/26 01:07:46;;;;;;;;;;;;;;;1.85;78.21;98399.87;1723027;81;24621;-89
2020/12/26 01:10:32;;;;;;;;;;;;;;;1.87;78.22;98392.89;1697888;83;20347;-89
2020/12/26 01:13:23;;;;;;;;;;;;;;;2.00;78.20;98404.92;1729899;82;25686;-88
2020/12/26 01:16:09;;;;;;;;;;;;;;;2.02;78.19;98408.27;1728455;82;22177;-88
2020/12/26 01:18:56;;;;;;;;;;;;;;;1.85;78.21;98392.13;1726337;83;26106;-88
2020/12/26 01:21:42;;;;;;;;;;;;;;;1.82;78.18;98408.14;1728408;82;24645;-89
2020/12/26 01:24:28;;;;;;;;;;;;;;;1.75;78.15;98402.80;1755306;81;20178;-89
2020/12/26 01:27:15;;;;;;;;;;;;;;;1.73;78.10;98405.45;1713776;83;25025;-89
2020/12/26 01:30:02;;;;;;;;;;;;;;;1.69;78.04;98396.95;1727135;81;22237;-88
2020/12/26 01:32:48;;;;;;;;;;;;;;;1.69;78.03;98393.56;1730913;82;26143;-88
2020/12/26 01:35:34;;;;;;;;;;;;;;;1.68;77.97;98395.74;1731586;82;24630;-88
2020/12/26 01:38:20;;;;;;;;;;;;;;;1.66;77.94;98395.78;1731996;82;20315;-88
2020/12/26 01:41:07;;;;;;;;;;;;;;;1.63;77.91;98389.91;1758258;80;25091;-87
2020/12/26 01:43:54;;;;;;;;;;;;;;;1.56;77.90;98394.42;1722611;81;23067;-87
2020/12/26 01:46:40;;;;;;;;;;;;;;;1.57;77.87;98397.41;1717323;83;27007;-88
2020/12/26 01:49:26;;;;;;;;;;;;;;;1.56;77.82;98398.73;1719503;83;24623;-88
2020/12/26 01:52:14;;;;;;;;;;;;;;;1.58;77.81;98396.48;1728214;81;20460;-88
2020/12/26 01:55:01;;;;;;;;;;;;;;;1.53;77.79;98394.95;1720089;83;25040;-88
2020/12/26 01:57:47;;;;;;;;;;;;;;;1.46;77.76;98402.53;1716713;83;22155;-88
2020/12/26 02:00:33;;;;;;;;;;;;;;;1.37;77.73;98398.51;1720120;82;26124;-88
2020/12/26 02:03:23;;;;;;;;;;;;;;;1.33;77.72;98398.22;1718298;81;24589;-88
2020/12/26 02:06:08;;;;;;;;;;;;;;;1.32;77.66;98405.55;1722904;82;20474;-88
2020/12/26 02:08:58;;;;;;;;;;;;;;;1.28;77.63;98405.71;1717529;83;24879;-88
2020/12/26 02:11:44;;;;;;;;;;;;;;;1.24;77.62;98398.09;1717469;82;22361;-88
2020/12/26 02:14:34;;;;;;;;;;;;;;;1.20;77.62;98399.54;1719741;83;27141;-88
2020/12/26 02:17:20;;;;;;;;;;;;;;;1.17;77.61;98404.78;1719035;83;24614;-88
2020/12/26 02:20:06;;;;;;;;;;;;;;;1.11;77.60;98401.95;1722131;83;20557;-88
2020/12/26 02:22:53;;;;;;;;;;;;;;;1.14;77.59;98407.47;1724808;81;25113;-88
2020/12/26 02:25:39;;;;;;;;;;;;;;;1.15;77.56;98403.53;1721180;81;22113;-88
2020/12/26 02:28:26;;;;;;;;;;;;;;;1.15;77.58;98398.38;1719703;82;26132;-87
2020/12/26 02:31:12;;;;;;;;;;;;;;;1.15;77.60;98403.53;1718867;83;24577;-87
2020/12/26 02:33:58;;;;;;;;;;;;;;;1.18;77.57;98400.87;1724380;81;20212;-88
2020/12/26 02:36:44;;;;;;;;;;;;;;;1.19;77.60;98403.01;1725746;82;24880;-88
2020/12/26 02:39:32;;;;;;;;;;;;;;;1.22;77.60;98396.45;1726018;81;22126;-88
2020/12/26 02:42:18;;;;;;;;;;;;;;;1.20;77.67;98397.78;1724361;81;26187;-87
2020/12/26 02:45:05;;;;;;;;;;;;;;;1.19;77.66;98402.56;1717283;83;24519;-87
2020/12/26 02:47:52;;;;;;;;;;;;;;;1.20;77.66;98405.98;1746876;81;20365;-88
2020/12/26 02:50:38;;;;;;;;;;;;;;;1.24;77.67;98401.96;1746614;81;25117;-87
2020/12/26 02:53:24;;;;;;;;;;;;;;;1.29;77.70;98408.25;1744205;80;22279;-87
2020/12/26 02:56:10;;;;;;;;;;;;;;;1.35;77.70;98403.34;1742921;81;26099;-87
2020/12/26 02:58:56;;;;;;;;;;;;;;;1.36;77.71;98405.03;1742856;79;25447;-88
2020/12/26 03:01:43;;;;;;;;;;;;;;;1.40;77.73;98411.75;1747575;81;20591;-87
2020/12/26 03:04:28;;;;;;;;;;;;;;;1.42;77.75;98408.69;1743372;80;24974;-87
2020/12/26 03:07:16;;;;;;;;;;;;;;;1.47;77.77;98412.80;1736900;81;22867;-87
2020/12/26 03:10:02;;;;;;;;;;;;;;;1.50;77.78;98411.84;1749089;81;27140;-87
2020/12/26 03:12:48;;;;;;;;;;;;;;;1.49;77.81;98412.73;1748886;81;24620;-88
2020/12/26 03:15:34;;;;;;;;;;;;;;;1.47;77.81;98414.53;1745387;81;20174;-88
2020/12/26 03:18:21;;;;;;;;;;;;;;;1.46;77.82;98413.69;1747074;81;25738;-88
2020/12/26 03:21:06;;;;;;;;;;;;;;;1.46;77.79;98411.55;1750928;80;22198;-88
2020/12/26 03:23:53;;;;;;;;;;;;;;;1.49;77.81;98410.99;1741687;80;26368;-88
2020/12/26 03:26:39;;;;;;;;;;;;;;;1.53;77.82;98411.27;1737013;81;24799;-88
2020/12/26 03:29:25;;;;;;;;;;;;;;;1.56;77.82;98412.92;1742111;80;20297;-88
2020/12/26 03:32:13;;;;;;;;;;;;;;;1.58;77.83;98416.30;1746474;80;24889;-88
2020/12/26 03:34:59;;;;;;;;;;;;;;;1.62;77.82;98422.59;1747652;80;22216;-88
2020/12/26 03:37:45;;;;;;;;;;;;;;;1.62;77.83;98425.17;1745419;81;26972;-87
2020/12/26 03:40:31;;;;;;;;;;;;;;;1.62;77.83;98432.06;1748231;80;24634;-88
2020/12/26 03:43:18;;;;;;;;;;;;;;;1.62;77.83;98430.33;1745390;80;20257;-88
2020/12/26 03:46:04;;;;;;;;;;;;;;;1.58;77.85;98425.33;1741906;81;25807;-89
2020/12/26 03:48:50;;;;;;;;;;;;;;;1.54;77.83;98427.59;1746708;81;22268;-87
2020/12/26 03:51:38;;;;;;;;;;;;;;;1.50;77.83;98438.47;1738510;81;26191;-88
2020/12/26 03:54:24;;;;;;;;;;;;;;;1.48;77.80;98444.55;1744106;80;24646;-88
2020/12/26 03:57:11;;;;;;;;;;;;;;;1.48;77.80;98443.27;1742821;81;20635;-87
2020/12/26 03:59:57;;;;;;;;;;;;;;;1.48;77.78;98441.98;1745179;81;24928;-87
2020/12/26 04:02:43;;;;;;;;;;;;;;;1.49;77.77;98447.09;1744860;80;23049;-88
2020/12/26 04:05:33;;;;;;;;;;;;;;;1.51;77.77;98453.50;1715324;81;26321;-88
2020/12/26 04:08:19;;;;;;;;;;;;;;;1.51;77.76;98449.19;1742370;80;24607;-88
2020/12/26 04:11:08;;;;;;;;;;;;;;;1.51;77.76;98450.47;1710934;83;20277;-88
2020/12/26 04:13:54;;;;;;;;;;;;;;;1.50;77.78;98451.36;1715313;81;25038;-88
2020/12/26 04:16:41;;;;;;;;;;;;;;;1.47;77.79;98445.03;1743030;80;23333;-88
2020/12/26 04:19:27;;;;;;;;;;;;;;;1.46;77.78;98447.66;1735358;81;26132;-88
2020/12/26 04:22:14;;;;;;;;;;;;;;;1.48;77.78;98451.84;1728129;81;24702;-88
2020/12/26 04:25:00;;;;;;;;;;;;;;;1.53;77.76;98454.27;1726511;81;20264;-88
2020/12/26 04:27:49;;;;;;;;;;;;;;;1.51;77.76;98451.77;1736955;81;25742;-87
2020/12/26 04:30:35;;;;;;;;;;;;;;;1.54;77.76;98452.94;1747810;81;22133;-88
2020/12/26 04:33:22;;;;;;;;;;;;;;;1.52;77.76;98455.19;1741467;81;26182;-88
2020/12/26 04:36:08;;;;;;;;;;;;;;;1.45;77.75;98452.41;1742991;81;24410;-88
2020/12/26 04:38:56;;;;;;;;;;;;;;;1.36;77.73;98454.86;1744413;81;20401;-88
2020/12/26 04:41:42;;;;;;;;;;;;;;;1.30;77.71;98457.62;1747060;80;25085;-88
2020/12/26 04:44:28;;;;;;;;;;;;;;;1.26;77.67;98464.59;1739904;81;22166;-88
2020/12/26 04:47:15;;;;;;;;;;;;;;;1.21;77.67;98465.63;1745172;80;26180;-87
2020/12/26 04:50:00;;;;;;;;;;;;;;;1.19;77.62;98463.58;1745587;81;24820;-87
2020/12/26 04:52:48;;;;;;;;;;;;;;;1.15;77.61;98464.09;1738546;81;20465;-87
2020/12/26 04:55:33;;;;;;;;;;;;;;;1.15;77.59;98467.11;1747796;80;24923;-87
2020/12/26 04:58:20;;;;;;;;;;;;;;;1.12;77.57;98475.80;1746021;81;22118;-88
2020/12/26 05:01:06;;;;;;;;;;;;;;;1.06;77.54;98471.28;1737835;81;26301;-87
2020/12/26 05:03:56;;;;;;;;;;;;;;;1.04;77.50;98477.77;1753979;80;25407;-87
2020/12/26 05:06:42;;;;;;;;;;;;;;;1.05;77.52;98474.74;1745971;81;20501;-87
2020/12/26 05:09:29;;;;;;;;;;;;;;;1.03;77.49;98479.97;1715243;81;24867;-87
2020/12/26 05:12:14;;;;;;;;;;;;;;;1.03;77.49;98481.70;1714792;81;22084;-87
2020/12/26 05:15:01;;;;;;;;;;;;;;;1.04;77.47;98482.91;1748011;80;26140;-87
2020/12/26 05:17:47;;;;;;;;;;;;;;;1.06;77.47;98490.61;1736030;80;24678;-87
2020/12/26 05:20:33;;;;;;;;;;;;;;;1.05;77.46;98489.76;1741069;81;20481;-87
2020/12/26 05:23:19;;;;;;;;;;;;;;;1.04;77.46;98488.51;1750291;80;25637;-87
2020/12/26 05:26:06;;;;;;;;;;;;;;;1.05;77.45;98485.05;1736222;80;22140;-88
2020/12/26 05:28:52;;;;;;;;;;;;;;;1.04;77.46;98494.51;1743900;81;26092;-88
2020/12/26 05:31:38;;;;;;;;;;;;;;;1.05;77.45;98494.91;1745342;81;24579;-87
2020/12/26 05:34:24;;;;;;;;;;;;;;;1.08;77.45;98497.41;1751075;80;20281;-89
2020/12/26 05:37:10;;;;;;;;;;;;;;;1.09;77.45;98496.50;1743831;81;24984;-89
2020/12/26 05:39:56;;;;;;;;;;;;;;;1.10;77.45;98490.45;1737298;81;22225;-89
2020/12/26 05:42:43;;;;;;;;;;;;;;;1.14;77.45;98503.67;1745653;81;26142;-89
2020/12/26 05:45:34;;;;;;;;;;;;;;;1.17;77.48;98508.72;1714865;81;24058;-89
2020/12/26 05:48:21;;;;;;;;;;;;;;;1.19;77.47;98502.23;1729658;83;20523;-89
2020/12/26 05:51:07;;;;;;;;;;;;;;;1.15;77.47;98513.06;1723991;83;24920;-88
2020/12/26 05:53:53;;;;;;;;;;;;;;;1.12;77.48;98513.61;1726847;83;22238;-88
2020/12/26 05:56:39;;;;;;;;;;;;;;;1.09;77.46;98511.95;1725639;83;27055;-89
2020/12/26 05:59:26;;;;;;;;;;;;;;;1.08;77.45;98516.74;1726180;81;24626;-88
2020/12/26 06:02:12;;;;;;;;;;;;;;;1.06;77.43;98518.51;1728283;82;20272;-88
2020/12/26 06:04:58;;;;;;;;;;;;;;;1.03;77.44;98515.20;1726567;83;24903;-88
2020/12/26 06:07:44;;;;;;;;;;;;;;;1.04;77.43;98521.56;1725921;83;22133;-87
2020/12/26 06:10:30;;;;;;;;;;;;;;;1.04;77.42;98523.30;1730357;83;26132;-88
2020/12/26 06:13:16;;;;;;;;;;;;;;;1.08;77.41;98524.91;1729567;83;24648;-87
2020/12/26 06:16:04;;;;;;;;;;;;;;;1.11;77.42;98528.23;1721378;83;20511;-87
2020/12/26 06:18:50;;;;;;;;;;;;;;;1.10;77.43;98535.55;1754584;81;24981;-87
2020/12/26 06:21:40;;;;;;;;;;;;;;;1.08;77.41;98537.80;1716964;83;22068;-87
2020/12/26 06:24:26;;;;;;;;;;;;;;;1.05;77.41;98541.73;1716914;83;26070;-87
2020/12/26 06:27:12;;;;;;;;;;;;;;;1.04;77.39;98549.06;1719361;81;24599;-87
2020/12/26 06:29:58;;;;;;;;;;;;;;;0.99;77.36;98562.09;1712047;83;20509;-87
2020/12/26 06:32:44;;;;;;;;;;;;;;;0.97;77.34;98556.16;1701914;83;25702;-88
2020/12/26 06:35:30;;;;;;;;;;;;;;;0.93;77.30;98565.31;1723066;82;22166;-88
2020/12/26 06:38:17;;;;;;;;;;;;;;;0.91;77.29;98573.08;1749551;80;27121;-88
2020/12/26 06:41:03;;;;;;;;;;;;;;;0.91;77.25;98575.66;1752646;80;24706;-88
2020/12/26 06:43:49;;;;;;;;;;;;;;;0.91;77.21;98578.67;1748105;82;20596;-88
2020/12/26 06:46:35;;;;;;;;;;;;;;;0.89;77.19;98580.44;1748136;82;24905;-88
2020/12/26 06:49:22;;;;;;;;;;;;;;;0.90;77.17;98582.13;1747999;81;22630;-88
2020/12/26 06:52:09;;;;;;;;;;;;;;;0.89;77.14;98576.57;1747749;82;27215;-88
2020/12/26 06:54:55;;;;;;;;;;;;;;;0.90;77.12;98575.25;1714603;82;24585;-88
2020/12/26 06:57:41;;;;;;;;;;;;;;;0.90;77.10;98589.42;1712709;83;20527;-88
2020/12/26 07:00:27;;;;;;;;;;;;;;;0.91;77.06;98594.12;1718452;81;24800;-88
2020/12/26 07:03:14;;;;;;;;;;;;;;;0.92;77.04;98597.95;1714746;83;23048;-88
2020/12/26 07:06:02;;;;;;;;;;;;;;;0.91;77.04;98600.13;1716475;83;26172;-88
2020/12/26 07:08:48;;;;;;;;;;;;;;;0.95;77.02;98599.59;1716745;83;24591;-87
2020/12/26 07:11:36;;;;;;;;;;;;;;;0.98;77.01;98597.78;1717775;83;20520;-87
2020/12/26 07:14:22;;;;;;;;;;;;;;;1.00;77.00;98596.43;1722235;83;24912;-87
2020/12/26 07:17:09;;;;;;;;;;;;;;;1.01;76.99;98599.41;1715255;82;22128;-87
2020/12/26 07:19:58;;;;;;;;;;;;;;;1.04;76.98;98605.31;1713882;83;26389;-88
2020/12/26 07:22:43;;;;;;;;;;;;;;;1.07;76.95;98610.39;1716593;83;24679;-87
2020/12/26 07:25:29;;;;;;;;;;;;;;;1.09;76.94;98612.46;1720463;83;20264;-87
2020/12/26 07:28:15;;;;;;;;;;;;;;;1.04;76.94;98618.20;1718621;83;25303;-87
2020/12/26 07:31:02;;;;;;;;;;;;;;;1.06;76.91;98621.58;1719552;82;22059;-88
2020/12/26 07:33:48;;;;;;;;;;;;;;;1.15;76.91;98623.89;1700357;83;26662;-88
2020/12/26 07:36:34;;;;;;;;;;;;;;;1.25;76.90;98626.59;1713053;83;24745;-87
2020/12/26 07:39:20;;;;;;;;;;;;;;;1.34;76.93;98620.78;1716155;83;20632;-88
2020/12/26 07:42:06;;;;;;;;;;;;;;;1.38;76.95;98615.92;1716484;81;24935;-88
2020/12/26 07:44:52;;;;;;;;;;;;;;;1.38;76.97;98616.77;1721358;81;22214;-88
2020/12/26 07:47:44;;;;;;;;;;;;;;;1.43;76.99;98631.65;1714886;81;26872;-88
2020/12/26 07:50:34;;;;;;;;;;;;;;;1.47;76.98;98624.25;1719607;82;24873;-88
2020/12/26 07:53:21;;;;;;;;;;;;;;;1.46;76.98;98637.17;1712287;83;20460;-87
2020/12/26 07:56:07;;;;;;;;;;;;;;;1.41;76.99;98639.05;1723394;81;25062;-87
2020/12/26 07:58:53;;;;;;;;;;;;;;;1.40;76.99;98642.52;1752899;80;22544;-88
2020/12/26 08:01:39;;;;;;;;;;;;;;;1.42;76.98;98644.61;1747508;81;26101;-88
2020/12/26 08:04:26;;;;;;;;;;;;;;;1.41;76.98;98645.50;1748658;80;24674;-88
2020/12/26 08:07:12;;;;;;;;;;;;;;;1.44;76.96;98649.26;1748463;80;20384;-88
2020/12/26 08:09:58;;;;;;;;;;;;;;;1.48;76.95;98645.25;1748311;80;24887;-88
2020/12/26 08:12:44;;;;;;;;;;;;;;;1.54;76.95;98649.38;1749353;80;22078;-88
2020/12/26 08:15:30;;;;;;;;;;;;;;;1.55;76.96;98644.63;1750135;80;26099;-89
2020/12/26 08:18:16;;;;;;;;;;;;;;;1.55;76.99;98654.94;1748129;82;24615;-88
2020/12/26 08:21:06;;;;;;;;;;;;;;;1.53;76.97;98655.42;1748440;82;20536;-88
2020/12/26 08:23:52;;;;;;;;;;;;;;;1.56;76.98;98664.38;1751222;80;24863;-88
2020/12/26 08:26:39;;;;;;;;;;;;;;;1.55;76.94;98657.52;1746996;82;22921;-88
2020/12/26 08:29:25;;;;;;;;;;;;;;;1.56;76.96;98665.66;1747112;81;26097;-88
2020/12/26 08:32:11;;;;;;;;;;;;;;;1.58;76.96;98666.47;1750881;80;24664;-88
2020/12/26 08:34:57;;;;;;;;;;;;;;;1.60;76.95;98674.98;1721488;82;21340;-88
2020/12/26 08:37:44;;;;;;;;;;;;;;;1.58;76.94;98672.92;1747077;81;25834;-88
2020/12/26 08:40:29;;;;;;;;;;;;;;;1.56;76.93;98674.69;1721780;83;22108;-88
2020/12/26 08:43:15;;;;;;;;;;;;;;;1.58;76.92;98676.78;1727239;82;27051;-88
2020/12/26 08:46:01;;;;;;;;;;;;;;;1.57;76.92;98675.09;1757259;80;24808;-89
2020/12/26 08:48:47;;;;;;;;;;;;;;;1.58;76.90;98675.02;1753991;81;20329;-89
2020/12/26 08:51:35;;;;;;;;;;;;;;;1.63;76.88;98679.62;1755187;80;25114;-88
2020/12/26 08:54:21;;;;;;;;;;;;;;;1.69;76.87;98688.91;1758611;81;22124;-87
2020/12/26 08:57:07;;;;;;;;;;;;;;;1.66;76.90;98695.00;1718662;81;27252;-88
2020/12/26 08:59:41;;;;;;;;;;;;;;;1.60;76.91;98703.36;1717903;81;24758;-88
2020/12/26 09:02:27;;;;;;;;;;;;;;;1.58;76.87;98702.58;1732737;81;20236;-87
2020/12/26 09:05:18;;;;;;;;;;;;;;;1.58;76.86;98710.31;1778323;80;26226;-88
2020/12/26 09:08:04;;;;;;;;;;;;;;;1.58;76.85;98711.61;1714102;83;22126;-88
2020/12/26 09:10:50;;;;;;;;;;;;;;;1.55;76.84;98712.97;1748172;81;26904;-88
2020/12/26 09:13:36;;;;;;;;;;;;;;;1.55;76.83;98712.97;1752319;80;24579;-88
2020/12/26 09:16:22;;;;;;;;;;;;;;;1.54;76.81;98712.56;1754692;81;20369;-88
2020/12/26 09:19:09;;;;;;;;;;;;;;;1.56;76.78;98705.63;1748566;80;25816;-88
2020/12/26 09:21:55;;;;;;;;;;;;;;;1.58;76.76;98709.02;1758276;80;22990;-88
2020/12/26 09:24:41;;;;;;;;;;;;;;;1.60;76.78;98711.94;1758327;81;26206;-88
2020/12/26 09:27:27;;;;;;;;;;;;;;;1.62;76.76;98718.36;1755225;80;24875;-88
2020/12/26 09:30:14;;;;;;;;;;;;;;;1.64;76.75;98716.55;1747558;80;20330;-87
2020/12/26 09:33:00;;;;;;;;;;;;;;;1.70;76.74;98716.38;1747859;81;24923;-88
2020/12/26 09:35:46;;;;;;;;;;;;;;;1.72;76.72;98717.19;1753475;80;22194;-88
2020/12/26 09:38:32;;;;;;;;;;;;;;;1.76;76.74;98717.48;1749115;80;26136;-88
2020/12/26 09:41:19;;;;;;;;;;;;;;;1.82;76.72;98722.47;1721302;81;24786;-88
2020/12/26 09:44:10;;;;;;;;;;;;;;;1.80;76.72;98717.78;1722301;81;20627;-89
2020/12/26 09:46:59;;;;;;;;;;;;;;;1.77;76.72;98711.44;1710563;83;24928;-88
2020/12/26 09:49:48;;;;;;;;;;;;;;;1.79;76.69;98718.70;1718342;83;22226;-88
2020/12/26 09:52:35;;;;;;;;;;;;;;;1.81;76.67;98723.80;1714321;81;26334;-88
2020/12/26 09:55:22;;;;;;;;;;;;;;;1.87;76.64;98721.88;1688750;83;24549;-88
2020/12/26 09:58:08;;;;;;;;;;;;;;;1.93;76.62;98725.56;1753822;81;20460;-88
2020/12/26 10:01:03;;;;;;;;;;;;;;;1.97;76.59;98731.47;1746505;81;24880;-89
2020/12/26 10:03:50;;;;;;;;;;;;;;;2.00;76.56;98722.36;1755379;81;22197;-88
2020/12/26 10:06:36;;;;;;;;;;;;;;;1.94;76.55;98725.12;1753758;81;26138;-89
2020/12/26 10:09:23;;;;;;;;;;;;;;;1.90;76.46;98722.25;1754159;80;24621;-88
2020/12/26 10:12:11;;;;;;;;;;;;;;;1.94;76.40;98715.65;1757001;80;20265;-88
2020/12/26 10:14:58;;;;;;;;;;;;;;;1.99;76.37;98709.05;1757849;79;25851;-88
2020/12/26 10:17:46;;;;;;;;;;;;;;;2.01;76.35;98702.11;1759489;80;22310;-88
2020/12/26 10:20:32;;;;;;;;;;;;;;;2.01;76.28;98700.38;1758473;80;27011;-88
2020/12/26 10:23:22;;;;;;;;;;;;;;;1.99;76.22;98706.47;1756247;81;24641;-89
2020/12/26 10:26:10;;;;;;;;;;;;;;;2.01;76.15;98713.28;1754387;81;20472;-89
2020/12/26 10:28:57;;;;;;;;;;;;;;;2.04;76.11;98714.47;1753503;81;25025;-88
2020/12/26 10:31:43;;;;;;;;;;;;;;;2.08;76.05;98708.75;1754931;80;23056;-88
2020/12/26 10:34:28;;;;;;;;;;;;;;;2.10;76.02;98715.56;1750903;80;26187;-88
2020/12/26 10:37:16;;;;;;;;;;;;;;;2.14;75.95;98699.53;1755166;80;25027;-89
2020/12/26 10:40:02;;;;;;;;;;;;;;;2.13;75.88;98707.34;1754400;81;20368;-89
2020/12/26 10:42:48;;;;;;;;;;;;;;;2.10;75.81;98705.69;1753568;80;24386;-89
2020/12/26 10:45:34;;;;;;;;;;;;;;;2.04;75.73;98708.02;1755073;80;22126;-89
2020/12/26 10:48:21;;;;;;;;;;;;;;;2.07;75.63;98710.96;1755827;80;26307;-89
2020/12/26 10:51:08;;;;;;;;;;;;;;;2.08;75.56;98709.59;1757018;81;24677;-89
2020/12/26 10:53:59;;;;;;;;;;;;;;;2.02;75.49;98708.50;1755749;81;20644;-89
2020/12/26 10:56:46;;;;;;;;;;;;;;;1.93;75.38;98698.91;1759665;80;24923;-89
2020/12/26 10:59:33;;;;;;;;;;;;;;;1.87;75.25;98694.78;1761421;81;22165;-89
2020/12/26 11:02:20;;;;;;;;;;;;;;;1.88;75.15;98695.19;1751990;81;26120;-89
2020/12/26 11:05:06;;;;;;;;;;;;;;;1.91;75.06;98696.38;1750759;81;24799;-88
2020/12/26 11:07:52;;;;;;;;;;;;;;;1.89;74.98;98705.92;1755992;80;20308;-89
2020/12/26 11:10:38;;;;;;;;;;;;;;;1.88;74.90;98702.93;1760835;79;25716;-88
2020/12/26 11:13:24;;;;;;;;;;;;;;;1.84;74.82;98711.66;1718242;81;22936;-88
2020/12/26 11:16:09;;;;;;;;;;;;;;;1.87;74.72;98712.84;1767141;80;26859;-89
2020/12/26 11:18:56;;;;;;;;;;;;;;;1.86;74.66;98708.58;1714023;81;24704;-88
2020/12/26 11:21:41;;;;;;;;;;;;;;;1.83;74.57;98712.55;1740897;80;20369;-88
2020/12/26 11:24:27;;;;;;;;;;;;;;;1.80;74.49;98701.48;1754087;80;25056;-88
2020/12/26 11:27:13;;;;;;;;;;;;;;;1.77;74.41;98704.99;1747621;80;22209;-87
2020/12/26 11:30:00;;;;;;;;;;;;;;;1.78;74.33;98707.13;1720552;81;26124;-88
2020/12/26 11:32:47;;;;;;;;;;;;;;;1.81;74.26;98713.47;1756292;80;24582;-88
2020/12/26 11:35:33;;;;;;;;;;;;;;;1.88;74.20;98705.95;1754380;80;20329;-88
2020/12/26 11:38:19;;;;;;;;;;;;;;;1.92;74.16;98698.51;1753331;79;24968;-88
2020/12/26 11:41:07;;;;;;;;;;;;;;;1.90;74.12;98694.70;1724391;81;21330;-87
2020/12/26 11:43:53;;;;;;;;;;;;;;;1.93;74.07;98701.05;1744873;81;26170;-88
2020/12/26 11:46:39;;;;;;;;;;;;;;;2.01;74.02;98701.67;1751090;80;24626;-88
2020/12/26 11:49:26;;;;;;;;;;;;;;;2.04;73.98;98696.84;1744439;80;20798;-88
2020/12/26 11:52:14;;;;;;;;;;;;;;;1.94;73.95;98701.90;1751565;80;25833;-89
2020/12/26 11:55:00;;;;;;;;;;;;;;;1.88;73.85;98699.06;1728742;82;22165;-88
2020/12/26 11:57:47;;;;;;;;;;;;;;;1.85;73.75;98704.33;1730477;82;26137;-89
2020/12/26 12:00:33;;;;;;;;;;;;;;;1.86;73.68;98702.56;1730679;82;23836;-88
2020/12/26 12:03:19;;;;;;;;;;;;;;;1.84;73.60;98705.22;1728957;82;20438;-89
2020/12/26 12:06:05;;;;;;;;;;;;;;;1.78;73.50;98712.29;1731969;82;24976;-88
2020/12/26 12:08:52;;;;;;;;;;;;;;;1.81;73.44;98710.89;1729953;82;22313;-88
2020/12/26 12:11:40;;;;;;;;;;;;;;;1.81;73.39;98714.77;1727977;82;26115;-88
2020/12/26 12:14:29;;;;;;;;;;;;;;;1.77;73.34;98711.88;1727274;82;24734;-88
2020/12/26 12:17:15;;;;;;;;;;;;;;;1.79;73.27;98710.11;1728027;82;20478;-88
2020/12/26 12:20:01;;;;;;;;;;;;;;;1.78;73.21;98710.56;1729353;82;24926;-88
2020/12/26 12:22:47;;;;;;;;;;;;;;;1.82;73.14;98709.56;1727913;82;22215;-88
2020/12/26 12:25:33;;;;;;;;;;;;;;;1.84;73.09;98712.95;1724891;82;26979;-88
2020/12/26 12:28:19;;;;;;;;;;;;;;;1.95;73.02;98703.16;1729778;82;24653;-88
2020/12/26 12:31:05;;;;;;;;;;;;;;;2.02;72.98;98708.50;1729901;82;20351;-88
2020/12/26 12:33:51;;;;;;;;;;;;;;;2.06;72.94;98717.02;1732679;82;24977;-88
2020/12/26 12:36:37;;;;;;;;;;;;;;;2.12;72.90;98711.66;1730343;81;22120;-88
2020/12/26 12:39:23;;;;;;;;;;;;;;;2.14;72.85;98699.97;1724298;82;25926;-88
2020/12/26 12:42:09;;;;;;;;;;;;;;;2.17;72.79;98690.86;1731154;82;25535;-89
2020/12/26 12:44:55;;;;;;;;;;;;;;;2.22;72.72;98694.13;1725393;82;20609;-88
2020/12/26 12:47:43;;;;;;;;;;;;;;;2.20;72.67;98684.28;1725886;82;24906;-87
2020/12/26 12:50:29;;;;;;;;;;;;;;;2.24;72.61;98680.26;1728721;82;22097;-89
2020/12/26 12:53:21;;;;;;;;;;;;;;;2.29;72.54;98687.88;1729050;82;27054;-88
2020/12/26 12:56:07;;;;;;;;;;;;;;;2.34;72.47;98683.41;1731549;80;23976;-88
2020/12/26 12:58:52;;;;;;;;;;;;;;;2.29;72.42;98686.59;1736801;80;20399;-90
2020/12/26 13:01:39;;;;;;;;;;;;;;;2.26;72.33;98677.64;1725303;81;25081;-90
2020/12/26 13:04:25;;;;;;;;;;;;;;;2.26;72.22;98682.80;1730370;82;23074;-89
2020/12/26 13:07:11;;;;;;;;;;;;;;;2.17;72.13;98681.38;1728504;82;26129;-87
2020/12/26 13:09:57;;;;;;;;;;;;;;;2.15;72.04;98681.02;1730603;82;24593;-89
2020/12/26 13:12:43;;;;;;;;;;;;;;;2.15;71.96;98686.17;1732142;82;20263;-88
2020/12/26 13:15:29;;;;;;;;;;;;;;;2.17;71.85;98690.86;1729304;81;24899;-88
2020/12/26 13:18:15;;;;;;;;;;;;;;;2.17;71.78;98701.18;1724949;82;22219;-88
2020/12/26 13:21:01;;;;;;;;;;;;;;;2.10;71.70;98705.24;1728129;82;26281;-89
2020/12/26 13:23:48;;;;;;;;;;;;;;;2.02;71.59;98698.17;1730698;82;24683;-88
2020/12/26 13:26:34;;;;;;;;;;;;;;;2.00;71.49;98705.14;1717335;82;20659;-89
2020/12/26 13:29:20;;;;;;;;;;;;;;;2.00;71.40;98707.72;1740008;80;25395;-90
2020/12/26 13:32:06;;;;;;;;;;;;;;;1.95;71.30;98702.30;1752077;80;22216;-89
2020/12/26 13:34:54;;;;;;;;;;;;;;;1.92;71.21;98704.52;1757101;79;27092;-88
2020/12/26 13:37:40;;;;;;;;;;;;;;;1.95;71.13;98709.60;1757278;79;25049;-88
2020/12/26 13:40:29;;;;;;;;;;;;;;;1.98;71.06;98710.78;1754072;80;20269;-89
2020/12/26 13:43:15;;;;;;;;;;;;;;;1.99;71.02;98709.89;1753270;80;24920;-88
2020/12/26 13:46:02;;;;;;;;;;;;;;;1.98;70.95;98710.78;1715857;82;22099;-89
2020/12/26 13:48:50;;;;;;;;;;;;;;;1.98;70.89;98708.20;1717237;82;20207;-88
2020/12/26 13:51:55;;;;;;;;;;;;;;;2.04;70.83;98721.36;1717382;82;22566;-89
2020/12/26 13:54:45;;;;;;;;;;;;;;;2.03;70.78;98717.94;1720748;81;20405;-88
2020/12/26 13:57:37;;;;;;;;;;;;;;;2.06;70.72;98719.59;1747698;80;24886;-89
2020/12/26 14:00:22;;;;;;;;;;;;;;;2.05;70.68;98718.74;1746235;80;23137;-90
2020/12/26 14:03:11;;;;;;;;;;;;;;;2.04;70.64;98729.11;1746544;81;26399;-89
2020/12/26 14:05:57;;;;;;;;;;;;;;;1.99;70.59;98730.55;1739599;81;25200;-88
2020/12/26 14:08:43;;;;;;;;;;;;;;;1.94;70.53;98716.09;1747057;80;20323;-88
2020/12/26 14:11:29;;;;;;;;;;;;;;;1.93;70.44;98728.59;1745653;81;25082;-88
2020/12/26 14:14:15;;;;;;;;;;;;;;;1.88;70.37;98730.47;1749338;80;22380;-88
2020/12/26 14:17:01;;;;;;;;;;;;;;;1.81;70.32;98733.67;1744134;81;26198;-88
2020/12/26 14:19:48;;;;;;;;;;;;;;;1.83;70.24;98740.93;1739653;81;24738;-87
2020/12/26 14:22:34;;;;;;;;;;;;;;;1.86;70.21;98738.25;1741021;80;20353;-88
2020/12/26 14:25:20;;;;;;;;;;;;;;;1.84;70.16;98745.20;1751004;80;25136;-88
2020/12/26 14:28:06;;;;;;;;;;;;;;;1.79;70.12;98747.08;1741908;81;22933;-88
2020/12/26 14:30:52;;;;;;;;;;;;;;;1.78;70.06;98740.23;1748077;80;26173;-87
2020/12/26 14:33:38;;;;;;;;;;;;;;;1.81;70.02;98735.41;1751525;80;24616;-88
2020/12/26 14:36:25;;;;;;;;;;;;;;;1.82;69.98;98743.11;1743665;80;20272;-87
2020/12/26 14:39:11;;;;;;;;;;;;;;;1.82;69.96;98734.52;1743242;81;25107;-87